Elm Grove, New York
Current Conditions -  °F | °C
As of 11:53 PM on Friday 31 Oct 2014 (Local Time) from KBGM Reporting Station
Overcast Overcast  
Wind Chill: 38°   Ceiling: 6000
Heat Index: 41°   Visibility: 10mi
Dew Point: 32°   Wind: 5mph
Humidity: 70%   Direction: 50°NE
Pressure: 29.89"   Gusts: NA
Location:  42.542°N, 75.2578°W
Report Text: KBGM 010353Z 05004KT 10SM OVC060 05/00 A2989 RMK AO2 SLP131 T00500000
Loading
Personal Weather Stations






























Interactive Weather Map
Tropical Storm Tracking
New forecast layout! Learn more

10-Day Weather Forecast

Advertisements
Track Severe Weather on mobile